Time;durP1;ratioP1;P1;durP2;ratioP2;P2;SDS_P1;SDS_P2;PMS_P1;PMS_P2;Temp;Humidity;BMP_temperature;BMP_pressure;BME280_temperature;BME280_humidity;BME280_pressure;Samples;Min_cycle;Max_cycle;Signal;HPM_P1;HPM_P2
2022/09/10 00:01:58;;;;;;;6.60;2.60;;;14.70;99.90;;;;;;5050203;28;20464;-66
2022/09/10 00:04:25;;;;;;;3.20;1.70;;;14.80;99.90;;;;;;5050446;28;21033;-66
2022/09/10 00:06:51;;;;;;;5.50;2.43;;;14.70;99.90;;;;;;5050100;28;21143;-66
2022/09/10 00:09:18;;;;;;;2.20;1.60;;;14.70;99.90;;;;;;5050851;28;20452;-66
2022/09/10 00:11:47;;;;;;;2.50;1.63;;;14.70;99.90;;;;;;5050119;28;21020;-66
2022/09/10 00:14:16;;;;;;;2.63;1.70;;;14.70;99.90;;;;;;5050271;28;20476;-66
2022/09/10 00:16:43;;;;;;;4.60;1.87;;;14.60;99.90;;;;;;5050280;28;20487;-66
2022/09/10 00:19:09;;;;;;;2.70;2.07;;;14.60;99.90;;;;;;5050465;28;20722;-66
2022/09/10 00:21:36;;;;;;;6.07;2.03;;;14.60;99.90;;;;;;5050646;28;20468;-66
2022/09/10 00:24:04;;;;;;;4.83;2.20;;;14.50;99.90;;;;;;5049753;28;20443;-66
2022/09/10 00:26:34;;;;;;;3.30;2.23;;;14.50;99.90;;;;;;5050655;28;20452;-66
2022/09/10 00:29:02;;;;;;;5.40;2.03;;;14.50;99.90;;;;;;5050397;28;20444;-66
2022/09/10 00:31:30;;;;;;;4.13;2.27;;;14.60;99.90;;;;;;5050128;28;20480;-66
2022/09/10 00:33:59;;;;;;;4.47;2.30;;;14.60;99.90;;;;;;5050414;28;20483;-66
2022/09/10 00:36:28;;;;;;;5.97;1.93;;;14.70;99.90;;;;;;5050344;28;20949;-66
2022/09/10 00:38:58;;;;;;;5.23;2.10;;;14.70;99.90;;;;;;5050296;28;20455;-66
2022/09/10 00:41:26;;;;;;;7.23;3.80;;;14.70;99.90;;;;;;5050673;28;20479;-66
2022/09/10 00:43:55;;;;;;;4.13;2.20;;;14.70;99.90;;;;;;5049865;28;20454;-66
2022/09/10 00:46:41;;;;;;;6.07;2.50;;;14.70;99.90;;;;;;5050604;28;20531;-66
2022/09/10 00:49:14;;;;;;;4.30;2.20;;;14.80;99.90;;;;;;5050350;28;20448;-66
2022/09/10 00:51:42;;;;;;;3.30;2.20;;;14.80;99.90;;;;;;5050163;28;20697;-66
2022/09/10 00:54:08;;;;;;;3.30;2.20;;;14.80;99.90;;;;;;5049879;28;20484;-66
2022/09/10 00:56:36;;;;;;;3.97;2.03;;;14.80;99.90;;;;;;5050028;28;20456;-66
2022/09/10 00:59:06;;;;;;;5.27;1.90;;;14.80;99.90;;;;;;5050106;28;20444;-66
2022/09/10 01:01:37;;;;;;;2.70;1.97;;;14.80;99.90;;;;;;5050197;28;20518;-66
2022/09/10 01:04:06;;;;;;;5.40;2.40;;;14.80;99.90;;;;;;5049834;28;20440;-66
2022/09/10 01:06:33;;;;;;;7.90;2.73;;;14.80;99.90;;;;;;5050279;28;20452;-66
2022/09/10 01:09:01;;;;;;;3.30;2.33;;;14.80;99.90;;;;;;5049815;28;20960;-66
2022/09/10 01:11:52;;;;;;;4.80;2.30;;;14.80;99.90;;;;;;5049912;28;20472;-65
2022/09/10 01:14:53;;;;;;;4.13;2.33;;;14.80;99.90;;;;;;5049730;28;20475;-66
2022/09/10 01:17:30;;;;;;;5.00;2.40;;;14.80;99.90;;;;;;5049938;28;20817;-65
2022/09/10 01:20:42;;;;;;;4.47;2.57;;;14.90;99.90;;;;;;5049967;28;20455;-65
2022/09/10 01:23:49;;;;;;;4.40;2.60;;;14.90;99.90;;;;;;5021422;28;21011;-65
2022/09/10 01:26:29;;;;;;;5.57;2.73;;;14.90;99.90;;;;;;5049681;28;20653;-65
2022/09/10 01:29:02;;;;;;;8.03;3.60;;;14.90;99.90;;;;;;5049711;28;20800;-66
2022/09/10 01:31:33;;;;;;;2.50;2.30;;;14.80;99.90;;;;;;5049991;28;20471;-65
2022/09/10 01:34:04;;;;;;;2.07;1.53;;;14.70;99.90;;;;;;5049122;28;20480;-65
2022/09/10 01:36:35;;;;;;;1.93;1.70;;;14.60;99.90;;;;;;5049643;28;20452;-65
2022/09/10 01:39:02;;;;;;;5.33;1.90;;;14.60;99.90;;;;;;5049803;28;20463;-65
2022/09/10 01:41:29;;;;;;;7.40;2.17;;;14.50;99.90;;;;;;5049501;28;20460;-65
2022/09/10 01:43:57;;;;;;;2.40;1.60;;;14.50;99.90;;;;;;5049270;28;20440;-66
2022/09/10 01:46:34;;;;;;;2.87;2.30;;;14.40;99.90;;;;;;5049302;28;20439;-66
2022/09/10 01:49:20;;;;;;;2.83;1.77;;;14.50;99.90;;;;;;5049437;28;20987;-66
2022/09/10 01:52:11;;;;;;;3.00;1.80;;;14.50;99.90;;;;;;5049214;28;21016;-65
2022/09/10 01:54:50;;;;;;;2.13;1.80;;;14.50;99.90;;;;;;5049164;28;20483;-66
2022/09/10 01:57:27;;;;;;;3.20;1.80;;;14.50;99.90;;;;;;5049666;28;20448;-66
2022/09/10 02:00:03;;;;;;;3.53;1.83;;;14.40;99.90;;;;;;5049395;28;20443;-66
2022/09/10 02:02:36;;;;;;;2.63;1.60;;;14.40;99.90;;;;;;5048897;28;20463;-65
2022/09/10 02:05:05;;;;;;;3.60;1.47;;;14.40;99.90;;;;;;5049137;28;20448;-66
2022/09/10 02:07:35;;;;;;;1.63;1.33;;;14.50;99.90;;;;;;5049371;28;20495;-66
2022/09/10 02:10:04;;;;;;;3.50;1.93;;;14.40;99.90;;;;;;5049271;28;20444;-66
2022/09/10 02:12:30;;;;;;;4.90;1.70;;;14.40;99.90;;;;;;5048763;28;20472;-66
2022/09/10 02:14:59;;;;;;;2.10;1.70;;;14.40;99.90;;;;;;5049285;28;20479;-66
2022/09/10 02:17:30;;;;;;;2.50;1.53;;;14.50;99.90;;;;;;5049557;28;20444;-66
2022/09/10 02:19:58;;;;;;;3.50;1.83;;;14.50;99.90;;;;;;5053127;28;20513;-65
2022/09/10 02:22:26;;;;;;;3.90;2.33;;;14.40;99.90;;;;;;5052691;28;20464;-65
2022/09/10 02:24:52;;;;;;;2.80;1.57;;;14.40;99.90;;;;;;5052854;28;20462;-66
2022/09/10 02:27:19;;;;;;;2.07;1.87;;;14.40;99.90;;;;;;5053204;28;20961;-65
2022/09/10 02:29:46;;;;;;;3.30;1.70;;;14.40;99.90;;;;;;5053369;28;20452;-66
2022/09/10 02:32:14;;;;;;;3.40;1.87;;;14.40;99.90;;;;;;5053324;28;20474;-66
2022/09/10 02:34:41;;;;;;;3.23;2.10;;;14.40;99.90;;;;;;5053708;28;20483;-65
2022/09/10 02:37:08;;;;;;;3.40;1.77;;;14.40;99.90;;;;;;5054063;28;20949;-66
2022/09/10 02:39:35;;;;;;;3.03;1.73;;;14.50;99.90;;;;;;5053779;28;20454;-66
2022/09/10 02:42:02;;;;;;;7.20;2.33;;;14.60;99.90;;;;;;5052814;28;20471;-66
2022/09/10 02:44:28;;;;;;;3.10;1.83;;;14.60;99.90;;;;;;5052678;28;20444;-66
2022/09/10 02:46:55;;;;;;;2.23;1.70;;;14.50;99.90;;;;;;5052743;28;20440;-66
2022/09/10 02:49:24;;;;;;;2.70;2.30;;;14.50;99.90;;;;;;5052639;28;20459;-66
2022/09/10 02:51:50;;;;;;;3.00;2.40;;;14.60;99.90;;;;;;5052272;28;20464;-66
2022/09/10 02:54:18;;;;;;;3.03;1.80;;;14.50;99.90;;;;;;5052218;28;20478;-66
2022/09/10 02:56:48;;;;;;;4.53;2.47;;;14.50;99.90;;;;;;5052319;28;20962;-66
2022/09/10 02:59:15;;;;;;;3.30;2.30;;;14.50;99.90;;;;;;5051903;28;20949;-66
2022/09/10 03:01:42;;;;;;;4.97;2.07;;;14.70;99.90;;;;;;5051740;28;20996;-66
2022/09/10 03:04:09;;;;;;;3.40;1.90;;;14.60;99.90;;;;;;5051975;28;20452;-66
2022/09/10 03:06:37;;;;;;;5.00;2.30;;;14.70;99.90;;;;;;5052244;28;20444;-66
2022/09/10 03:09:04;;;;;;;5.40;2.20;;;14.70;99.90;;;;;;5052015;28;20444;-66
2022/09/10 03:11:31;;;;;;;9.33;2.73;;;14.70;99.90;;;;;;5051664;28;20491;-66
2022/09/10 03:13:58;;;;;;;3.23;2.37;;;14.80;99.90;;;;;;5051682;28;20537;-66
2022/09/10 03:16:25;;;;;;;4.77;2.43;;;14.80;99.90;;;;;;5052723;28;20467;-66
2022/09/10 03:18:52;;;;;;;8.60;3.27;;;14.80;99.90;;;;;;5052024;28;20444;-66
2022/09/10 03:21:21;;;;;;;3.93;2.70;;;14.80;99.90;;;;;;5051779;28;20826;-66
2022/09/10 03:23:52;;;;;;;3.80;1.97;;;14.80;99.90;;;;;;5051373;28;20834;-66
2022/09/10 03:26:20;;;;;;;4.70;2.60;;;14.90;99.90;;;;;;5051954;28;20456;-66
2022/09/10 03:28:48;;;;;;;3.60;2.37;;;14.80;99.90;;;;;;5051189;28;20448;-66
2022/09/10 03:31:16;;;;;;;3.10;2.43;;;14.70;99.90;;;;;;5051131;28;20467;-66
2022/09/10 03:33:44;;;;;;;7.93;2.80;;;14.70;99.90;;;;;;5051269;28;20554;-66
2022/09/10 03:36:13;;;;;;;5.93;2.60;;;14.80;99.90;;;;;;5051196;28;20530;-66
2022/09/10 03:38:40;;;;;;;4.93;2.70;;;14.70;99.90;;;;;;5051196;28;20448;-66
2022/09/10 03:41:08;;;;;;;19.53;5.43;;;14.80;99.90;;;;;;5051447;28;20468;-66
2022/09/10 03:43:35;;;;;;;5.50;2.57;;;14.70;99.90;;;;;;5051175;28;20809;-66
2022/09/10 03:46:02;;;;;;;5.27;2.60;;;14.70;99.90;;;;;;5051400;28;20448;-66
2022/09/10 03:48:29;;;;;;;4.90;2.83;;;14.70;99.90;;;;;;5051371;28;20453;-66
2022/09/10 03:50:56;;;;;;;4.80;2.63;;;14.70;99.90;;;;;;5051205;28;20471;-66
2022/09/10 03:53:23;;;;;;;4.50;2.43;;;14.70;99.90;;;;;;5050807;28;20831;-66
2022/09/10 03:55:54;;;;;;;5.13;2.67;;;14.60;99.90;;;;;;5051767;28;20479;-66
2022/09/10 03:58:22;;;;;;;7.20;2.57;;;14.60;99.90;;;;;;5051248;28;20456;-66
2022/09/10 04:00:49;;;;;;;4.17;2.30;;;14.60;99.90;;;;;;5051052;28;20464;-66
2022/09/10 04:03:16;;;;;;;3.60;2.57;;;14.60;99.90;;;;;;5050626;28;20451;-66
2022/09/10 04:05:43;;;;;;;6.80;3.00;;;14.60;99.90;;;;;;5050936;28;20440;-66
2022/09/10 04:08:10;;;;;;;3.60;2.93;;;14.60;99.90;;;;;;5051195;28;20494;-66
2022/09/10 04:10:38;;;;;;;4.60;2.97;;;14.60;99.90;;;;;;5051204;28;20531;-66
2022/09/10 04:13:05;;;;;;;4.33;2.63;;;14.60;99.90;;;;;;5050529;28;20448;-66
2022/09/10 04:15:33;;;;;;;4.27;2.60;;;14.60;99.90;;;;;;5050602;28;20486;-66
2022/09/10 04:18:00;;;;;;;7.53;3.23;;;14.60;99.90;;;;;;5050785;28;20476;-66
2022/09/10 04:20:27;;;;;;;7.90;3.20;;;14.60;99.90;;;;;;5050464;28;20464;-66
2022/09/10 04:22:55;;;;;;;3.23;2.60;;;14.70;99.90;;;;;;5050300;28;20451;-66
2022/09/10 04:25:22;;;;;;;3.17;2.20;;;14.60;99.90;;;;;;5049934;28;20455;-66
2022/09/10 04:27:49;;;;;;;4.03;3.00;;;14.50;99.90;;;;;;5051174;28;20452;-66
2022/09/10 04:30:19;;;;;;;5.90;3.33;;;14.50;99.90;;;;;;5050819;28;20900;-66
2022/09/10 04:32:48;;;;;;;4.27;3.33;;;14.50;99.90;;;;;;5049682;28;20468;-66
2022/09/10 04:35:15;;;;;;;5.30;2.40;;;14.50;99.90;;;;;;5050291;28;20989;-66
2022/09/10 04:37:42;;;;;;;4.10;2.27;;;14.50;99.90;;;;;;5050157;28;20470;-66
2022/09/10 04:40:10;;;;;;;5.67;2.70;;;14.40;99.90;;;;;;5050218;28;20448;-66
2022/09/10 04:42:37;;;;;;;3.10;2.27;;;14.40;99.90;;;;;;5049773;28;20459;-66
2022/09/10 04:45:06;;;;;;;3.43;2.87;;;14.40;99.90;;;;;;5050355;28;20444;-66
2022/09/10 04:47:33;;;;;;;4.70;2.87;;;14.40;99.90;;;;;;5050160;28;20455;-66
2022/09/10 04:50:02;;;;;;;2.53;1.83;;;14.40;99.90;;;;;;5050095;28;20456;-66
2022/09/10 04:52:29;;;;;;;6.17;2.20;;;14.50;99.90;;;;;;5049519;28;20468;-66
2022/09/10 04:54:56;;;;;;;2.67;2.27;;;14.40;99.90;;;;;;5050115;28;20487;-66
2022/09/10 04:57:24;;;;;;;6.53;2.47;;;14.40;99.90;;;;;;5050147;28;20459;-66
2022/09/10 04:59:51;;;;;;;2.63;2.10;;;14.40;99.90;;;;;;5050154;28;20458;-66
2022/09/10 05:02:18;;;;;;;3.57;1.87;;;14.50;99.90;;;;;;5049619;28;20551;-66
2022/09/10 05:04:45;;;;;;;5.30;2.40;;;14.50;99.90;;;;;;5049752;28;20826;-66
2022/09/10 05:07:13;;;;;;;3.27;1.90;;;14.50;99.90;;;;;;5050094;28;20448;-66
2022/09/10 05:09:39;;;;;;;7.23;2.00;;;14.50;99.90;;;;;;5049907;28;20448;-66
2022/09/10 05:12:06;;;;;;;2.03;1.83;;;14.50;99.90;;;;;;5049693;28;20474;-66
2022/09/10 05:14:33;;;;;;;3.60;2.10;;;14.50;99.90;;;;;;5049700;28;20444;-66
2022/09/10 05:17:02;;;;;;;6.23;1.83;;;14.50;99.90;;;;;;5050236;28;20539;-66
2022/09/10 05:19:28;;;;;;;2.87;1.67;;;14.60;99.90;;;;;;5049538;28;20460;-66
2022/09/10 05:21:55;;;;;;;5.87;2.27;;;14.60;99.90;;;;;;5049502;28;20478;-66
2022/09/10 05:24:23;;;;;;;3.10;1.90;;;14.60;99.90;;;;;;5049643;28;20460;-66
2022/09/10 05:26:50;;;;;;;2.03;1.50;;;14.60;99.90;;;;;;5049921;28;20807;-66
2022/09/10 05:29:18;;;;;;;2.13;1.83;;;14.70;99.90;;;;;;5049703;28;20957;-66
2022/09/10 05:31:44;;;;;;;4.33;3.27;;;14.70;99.90;;;;;;5049217;28;20471;-66
2022/09/10 05:34:11;;;;;;;3.57;2.30;;;14.70;99.90;;;;;;5049464;28;20436;-66
2022/09/10 05:36:39;;;;;;;2.60;1.70;;;14.70;99.90;;;;;;5049601;28;20487;-66
2022/09/10 05:39:06;;;;;;;4.33;1.93;;;14.70;99.90;;;;;;5049677;28;20448;-66
2022/09/10 05:41:34;;;;;;;2.10;1.90;;;14.70;99.90;;;;;;5049550;28;20495;-66
2022/09/10 05:44:01;;;;;;;3.67;1.60;;;14.70;99.90;;;;;;5049182;28;20442;-66
2022/09/10 05:46:29;;;;;;;3.30;1.90;;;14.80;99.90;;;;;;5049637;28;20459;-66
2022/09/10 05:48:56;;;;;;;3.03;2.03;;;14.80;99.90;;;;;;5049533;28;20451;-66
2022/09/10 05:51:26;;;;;;;5.80;2.90;;;14.90;99.90;;;;;;5049452;28;20551;-66
2022/09/10 05:53:53;;;;;;;6.27;2.70;;;14.90;99.90;;;;;;5051809;28;20538;-66
2022/09/10 05:56:20;;;;;;;3.00;2.70;;;15.00;99.90;;;;;;5053293;28;20479;-66
2022/09/10 05:58:48;;;;;;;3.17;2.07;;;15.00;99.90;;;;;;5053336;28;20452;-66
2022/09/10 06:01:15;;;;;;;4.03;1.83;;;15.00;99.90;;;;;;5053005;28;20555;-66
2022/09/10 06:03:42;;;;;;;1.60;1.20;;;14.90;99.90;;;;;;5053089;28;20834;-66
2022/09/10 06:06:09;;;;;;;3.93;1.50;;;14.90;99.90;;;;;;5053405;28;20443;-66
2022/09/10 06:08:38;;;;;;;5.00;1.90;;;14.90;99.90;;;;;;5053755;28;20452;-66
2022/09/10 06:11:06;;;;;;;1.53;1.30;;;14.90;99.90;;;;;;5053066;28;20506;-66
2022/09/10 06:13:34;;;;;;;3.27;1.63;;;14.80;99.90;;;;;;5052699;28;20462;-67
2022/09/10 06:16:03;;;;;;;2.50;1.60;;;14.90;99.90;;;;;;5053135;28;20491;-64
2022/09/10 06:18:30;;;;;;;2.63;2.00;;;14.90;99.90;;;;;;5053405;28;20447;-64
2022/09/10 06:21:05;;;;;;;2.77;1.70;;;14.90;99.90;;;;;;5053406;28;20463;-67
2022/09/10 06:23:32;;;;;;;1.67;1.40;;;14.90;99.90;;;;;;5052926;28;20447;-67
2022/09/10 06:26:02;;;;;;;3.40;1.60;;;14.90;99.90;;;;;;5052905;28;20838;-67
2022/09/10 06:28:30;;;;;;;2.87;1.90;;;15.00;99.90;;;;;;5053124;28;20824;-67
2022/09/10 06:30:56;;;;;;;2.33;1.60;;;15.00;99.90;;;;;;5052867;28;20459;-67
2022/09/10 06:33:25;;;;;;;1.70;1.60;;;15.00;99.90;;;;;;5052650;28;20462;-67
2022/09/10 06:35:55;;;;;;;2.23;1.27;;;15.10;99.90;;;;;;5052546;28;21013;-67
2022/09/10 06:38:23;;;;;;;2.10;1.90;;;15.10;99.90;;;;;;5052447;28;21141;-67
2022/09/10 06:40:54;;;;;;;2.20;1.50;;;15.20;99.90;;;;;;5052467;28;20475;-67
2022/09/10 06:43:23;;;;;;;2.70;1.77;;;15.20;99.90;;;;;;5052313;28;20444;-67
2022/09/10 06:45:51;;;;;;;3.10;1.50;;;15.40;99.90;;;;;;5052484;28;20498;-66
2022/09/10 06:48:18;;;;;;;1.90;1.43;;;15.40;99.90;;;;;;5052371;28;20459;-67
2022/09/10 06:50:54;;;;;;;3.53;1.20;;;15.50;99.90;;;;;;5052481;28;20447;-66
2022/09/10 06:53:22;;;;;;;3.30;2.20;;;15.60;99.90;;;;;;5051794;28;20451;-66
2022/09/10 06:55:49;;;;;;;2.30;1.30;;;15.70;99.90;;;;;;5052296;28;20487;-66
2022/09/10 06:58:18;;;;;;;3.53;1.73;;;15.70;99.90;;;;;;5052129;28;20450;-66
2022/09/10 07:00:46;;;;;;;2.43;1.40;;;15.80;99.90;;;;;;5052110;28;20450;-66
2022/09/10 07:03:14;;;;;;;1.43;1.23;;;15.90;99.90;;;;;;5051436;28;20455;-66
2022/09/10 07:05:41;;;;;;;3.10;1.40;;;15.90;99.90;;;;;;5051930;28;20518;-66
2022/09/10 07:08:12;;;;;;;3.07;1.47;;;16.00;99.90;;;;;;5052255;28;20443;-66
2022/09/10 07:10:40;;;;;;;1.50;1.30;;;16.10;99.90;;;;;;5052076;28;20486;-66
2022/09/10 07:13:07;;;;;;;1.73;1.13;;;16.20;99.90;;;;;;5051798;28;20455;-66
2022/09/10 07:15:34;;;;;;;1.83;1.40;;;16.20;99.90;;;;;;5051889;28;20471;-66
2022/09/10 07:18:01;;;;;;;2.50;1.30;;;16.20;99.90;;;;;;5052401;28;20447;-66
2022/09/10 07:20:28;;;;;;;1.20;1.10;;;16.20;99.90;;;;;;5051895;28;20813;-66
2022/09/10 07:22:55;;;;;;;2.13;1.70;;;16.30;99.90;;;;;;5051684;28;20448;-66
2022/09/10 07:25:24;;;;;;;2.80;1.60;;;16.40;99.90;;;;;;5051743;28;20463;-66
2022/09/10 07:27:51;;;;;;;2.80;1.50;;;16.50;99.90;;;;;;5051489;28;20439;-66
2022/09/10 07:30:21;;;;;;;2.40;1.30;;;16.60;99.90;;;;;;5050362;28;20992;-66
2022/09/10 07:32:49;;;;;;;3.77;1.07;;;16.60;99.90;;;;;;5050889;28;20468;-66
2022/09/10 07:35:16;;;;;;;1.30;1.20;;;16.80;99.90;;;;;;5051541;28;21029;-66
2022/09/10 07:37:45;;;;;;;2.50;1.07;;;17.00;99.90;;;;;;5051618;28;20459;-66
2022/09/10 07:40:12;;;;;;;2.17;1.10;;;17.00;99.90;;;;;;5051515;28;20467;-66
2022/09/10 07:42:42;;;;;;;1.30;1.00;;;16.90;99.90;;;;;;5050983;28;20459;-66
2022/09/10 07:45:12;;;;;;;1.70;1.50;;;16.90;99.90;;;;;;5051244;28;20455;-67
2022/09/10 07:47:39;;;;;;;5.10;1.23;;;16.90;99.90;;;;;;5051548;28;20460;-67
2022/09/10 07:50:07;;;;;;;1.63;0.83;;;16.90;99.90;;;;;;5051250;28;20875;-67
2022/09/10 07:52:34;;;;;;;2.00;0.70;;;17.10;99.90;;;;;;5050957;28;20695;-67
2022/09/10 07:55:00;;;;;;;1.70;1.03;;;17.20;99.90;;;;;;5047281;28;20457;-67
2022/09/10 07:57:30;;;;;;;3.20;1.00;;;17.30;99.90;;;;;;5050810;28;20480;-67
2022/09/10 07:59:59;;;;;;;3.70;0.90;;;17.50;99.90;;;;;;5050935;28;20858;-67
2022/09/10 08:02:26;;;;;;;1.70;1.03;;;17.60;99.90;;;;;;5049881;28;20505;-66
2022/09/10 08:04:53;;;;;;;1.00;0.80;;;17.70;99.90;;;;;;5049298;28;20456;-71
2022/09/10 08:07:19;;;;;;;5.43;1.17;;;18.00;99.90;;;;;;5039800;28;20451;-66
2022/09/10 08:09:47;;;;;;;4.60;1.20;;;18.00;99.90;;;;;;5045674;28;20456;-65
2022/09/10 08:12:15;;;;;;;1.43;0.90;;;18.20;99.90;;;;;;5046103;28;20883;-66
2022/09/10 08:14:42;;;;;;;1.83;1.00;;;18.20;99.90;;;;;;5046733;28;20452;-66
2022/09/10 08:17:10;;;;;;;2.10;0.87;;;18.00;99.90;;;;;;5045981;28;20489;-65
2022/09/10 08:19:38;;;;;;;1.37;1.27;;;17.90;99.90;;;;;;5047955;28;20957;-64
2022/09/10 08:22:05;;;;;;;2.43;1.13;;;17.70;99.90;;;;;;5049405;28;20506;-64
2022/09/10 08:24:32;;;;;;;1.17;0.70;;;17.70;99.90;;;;;;5048519;28;20460;-64
2022/09/10 08:26:58;;;;;;;2.60;1.03;;;17.60;99.90;;;;;;5042949;28;20445;-64
2022/09/10 08:29:25;;;;;;;3.00;0.90;;;17.60;99.90;;;;;;5048773;28;20444;-64
2022/09/10 08:31:52;;;;;;;2.30;0.97;;;17.60;99.90;;;;;;5049341;28;21007;-64
2022/09/10 08:34:20;;;;;;;2.17;1.00;;;17.80;99.90;;;;;;5050061;28;20448;-64
2022/09/10 08:36:47;;;;;;;2.57;1.10;;;18.00;99.90;;;;;;5047840;28;20487;-64
2022/09/10 08:39:14;;;;;;;2.47;1.00;;;18.30;99.90;;;;;;5046397;28;20536;-64
2022/09/10 08:41:50;;;;;;;1.50;0.97;;;18.60;99.90;;;;;;5041254;28;20468;-65
2022/09/10 08:44:35;;;;;;;1.77;1.00;;;18.90;99.90;;;;;;5046295;28;20454;-65
2022/09/10 08:47:20;;;;;;;1.93;0.90;;;19.00;99.90;;;;;;5040546;28;20445;-65
2022/09/10 08:49:52;;;;;;;1.70;0.90;;;19.20;99.90;;;;;;5039268;28;20773;-65
2022/09/10 08:52:23;;;;;;;1.60;1.20;;;19.30;99.90;;;;;;5044317;28;20573;-65
2022/09/10 08:54:59;;;;;;;4.33;1.47;;;19.20;99.90;;;;;;5036688;28;21017;-64
2022/09/10 08:57:31;;;;;;;3.07;1.10;;;18.90;99.90;;;;;;5035940;28;20488;-65
2022/09/10 09:00:00;;;;;;;2.80;1.27;;;18.90;99.90;;;;;;5035363;28;20985;-65
2022/09/10 09:02:34;;;;;;;2.60;1.40;;;18.90;99.90;;;;;;5037675;28;20473;-65
2022/09/10 09:05:09;;;;;;;1.73;0.83;;;19.00;99.90;;;;;;5038808;28;20455;-68
2022/09/10 09:07:38;;;;;;;2.33;0.90;;;19.10;99.90;;;;;;5035277;28;21011;-65
2022/09/10 09:10:17;;;;;;;2.17;0.80;;;19.30;99.90;;;;;;5043233;28;20636;-65
2022/09/10 09:12:55;;;;;;;2.80;1.80;;;19.30;99.90;;;;;;5033538;28;20919;-65
2022/09/10 09:15:27;;;;;;;3.13;1.20;;;19.50;99.90;;;;;;5035098;28;20453;-65
2022/09/10 09:18:09;;;;;;;1.40;1.00;;;19.70;99.90;;;;;;5037508;28;20491;-65
2022/09/10 09:20:43;;;;;;;2.07;0.80;;;20.00;99.90;;;;;;5043834;28;20516;-65
2022/09/10 09:23:20;;;;;;;2.80;0.80;;;20.30;99.90;;;;;;5042504;28;20471;-65
2022/09/10 09:25:49;;;;;;;2.00;1.00;;;20.50;99.90;;;;;;5033275;28;21070;-65
2022/09/10 09:28:24;;;;;;;1.90;1.60;;;20.60;99.90;;;;;;5037702;28;20521;-64
2022/09/10 09:30:54;;;;;;;2.73;1.13;;;20.70;99.90;;;;;;5043010;28;20522;-65
2022/09/10 09:33:23;;;;;;;2.57;1.10;;;20.30;99.90;;;;;;5038325;28;20459;-64
2022/09/10 09:35:56;;;;;;;2.93;1.53;;;20.20;99.90;;;;;;5039804;28;20868;-64
2022/09/10 09:38:25;;;;;;;3.23;1.60;;;19.70;99.90;;;;;;5040702;28;20502;-65
2022/09/10 09:40:55;;;;;;;4.07;1.50;;;19.40;99.90;;;;;;5040964;28;20549;-64
2022/09/10 09:43:45;;;;;;;2.63;1.20;;;19.50;99.90;;;;;;5041061;28;20817;-65
2022/09/10 09:46:15;;;;;;;3.13;1.50;;;19.50;99.90;;;;;;5041975;28;21541;-64
2022/09/10 09:48:43;;;;;;;4.90;1.03;;;19.20;99.90;;;;;;5039011;28;20829;-64
2022/09/10 09:51:19;;;;;;;2.07;1.13;;;19.00;99.90;;;;;;5046026;28;20569;-63
2022/09/10 09:53:47;;;;;;;2.43;1.50;;;18.90;99.90;;;;;;5040825;28;20455;-66
2022/09/10 09:56:21;;;;;;;3.10;1.57;;;18.90;99.90;;;;;;5047012;28;20454;-63
2022/09/10 09:58:49;;;;;;;5.30;1.77;;;18.80;99.90;;;;;;5044627;28;21097;-64
2022/09/10 10:01:22;;;;;;;2.50;1.10;;;18.60;99.90;;;;;;5047899;28;20474;-65
2022/09/10 10:04:00;;;;;;;1.73;1.20;;;18.40;99.90;;;;;;5045768;28;20492;-65
2022/09/10 10:06:31;;;;;;;2.80;1.03;;;18.40;99.90;;;;;;5046549;28;20952;-63
2022/09/10 10:09:04;;;;;;;3.00;1.23;;;18.40;99.90;;;;;;5038149;28;20462;-64
2022/09/10 10:11:47;;;;;;;1.40;1.30;;;18.50;99.90;;;;;;5038769;28;20467;-64
2022/09/10 10:14:23;;;;;;;4.80;1.20;;;18.70;99.90;;;;;;5048150;28;21003;-64
2022/09/10 10:16:53;;;;;;;3.20;1.00;;;18.90;99.90;;;;;;5047525;28;20574;-64
2022/09/10 10:19:32;;;;;;;1.47;1.10;;;18.90;99.90;;;;;;5048315;28;20941;-64
2022/09/10 10:22:20;;;;;;;1.30;1.20;;;18.70;99.90;;;;;;5046120;28;20467;-64
2022/09/10 10:24:49;;;;;;;2.40;1.43;;;18.30;99.90;;;;;;5043461;28;20460;-64
2022/09/10 10:27:18;;;;;;;1.93;1.27;;;18.30;99.90;;;;;;5046827;28;20455;-64
2022/09/10 10:29:53;;;;;;;1.80;0.80;;;18.30;99.90;;;;;;5043606;28;20475;-64
2022/09/10 10:32:20;;;;;;;2.47;1.00;;;18.50;99.90;;;;;;5044805;28;20467;-64
2022/09/10 10:34:55;;;;;;;2.13;0.90;;;18.50;99.90;;;;;;5046161;28;20475;-64
2022/09/10 10:37:33;;;;;;;2.10;0.90;;;18.40;99.90;;;;;;5044915;28;20486;-64
2022/09/10 10:40:13;;;;;;;1.50;0.97;;;18.20;99.90;;;;;;5050975;28;20811;-64
2022/09/10 10:42:46;;;;;;;1.07;0.97;;;18.10;99.90;;;;;;5044601;28;21050;-64
2022/09/10 10:45:31;;;;;;;1.93;1.27;;;17.60;99.90;;;;;;5051652;28;20501;-64
2022/09/10 10:48:08;;;;;;;2.20;1.27;;;17.10;99.90;;;;;;5042842;28;20462;-64
2022/09/10 10:50:44;;;;;;;1.50;1.20;;;16.80;99.90;;;;;;5045514;28;20550;-65
2022/09/10 10:53:18;;;;;;;4.33;1.10;;;16.70;99.90;;;;;;5049288;28;20439;-63
2022/09/10 10:55:54;;;;;;;5.90;1.50;;;16.60;99.90;;;;;;5045437;28;20452;-63
2022/09/10 10:58:43;;;;;;;2.70;1.63;;;16.40;99.90;;;;;;5044900;28;20489;-64
2022/09/10 11:01:19;;;;;;;2.30;1.63;;;16.30;99.90;;;;;;5040272;28;20549;-65
2022/09/10 11:03:52;;;;;;;2.10;1.87;;;16.40;99.90;;;;;;5044584;28;20444;-64
2022/09/10 11:06:23;;;;;;;2.80;1.40;;;16.60;99.90;;;;;;5048081;28;20457;-64
2022/09/10 11:08:57;;;;;;;2.70;1.50;;;17.40;99.90;;;;;;5046445;28;21248;-66
2022/09/10 11:11:31;;;;;;;3.80;1.63;;;18.10;99.90;;;;;;5048645;28;20472;-64
2022/09/10 11:14:05;;;;;;;3.50;1.50;;;18.60;99.90;;;;;;5047888;28;20455;-65
2022/09/10 11:16:36;;;;;;;1.33;1.17;;;19.10;99.90;;;;;;5049481;28;20464;-64
2022/09/10 11:19:10;;;;;;;2.20;1.17;;;19.70;99.90;;;;;;5049197;28;20455;-64
2022/09/10 11:21:41;;;;;;;3.90;1.20;;;19.80;99.90;;;;;;5049878;28;20487;-65
2022/09/10 11:24:14;;;;;;;4.60;1.70;;;19.70;99.90;;;;;;5049485;28;20912;-64
2022/09/10 11:26:44;;;;;;;2.80;1.10;;;19.70;99.90;;;;;;5047864;28;20448;-64
2022/09/10 11:29:26;;;;;;;2.10;1.10;;;19.80;99.90;;;;;;5050177;28;20440;-65
2022/09/10 11:32:02;;;;;;;3.33;1.20;;;20.00;99.90;;;;;;5046966;28;20476;-65
2022/09/10 11:34:37;;;;;;;3.80;1.13;;;20.20;99.90;;;;;;5048367;28;20458;-65
2022/09/10 11:37:12;;;;;;;2.50;1.00;;;20.20;99.90;;;;;;5048128;28;20486;-66
2022/09/10 11:39:45;;;;;;;2.33;1.40;;;19.90;99.90;;;;;;5047588;28;20452;-65
2022/09/10 11:42:18;;;;;;;2.13;1.40;;;19.80;99.90;;;;;;5044445;28;20467;-65
2022/09/10 11:44:55;;;;;;;4.10;1.30;;;19.90;99.90;;;;;;5038179;28;20454;-65
2022/09/10 11:47:26;;;;;;;1.70;1.00;;;19.80;99.90;;;;;;5035965;28;20958;-65
2022/09/10 11:50:00;;;;;;;2.10;1.23;;;19.50;99.90;;;;;;5038741;28;20479;-65
2022/09/10 11:52:29;;;;;;;3.27;1.33;;;19.30;99.90;;;;;;5040080;28;20947;-64
2022/09/10 11:54:58;;;;;;;1.77;1.30;;;19.10;99.90;;;;;;5036271;28;20555;-65
2022/09/10 11:57:33;;;;;;;3.40;1.20;;;18.90;99.90;;;;;;5032812;28;22381;-66
2022/09/10 12:00:10;;;;;;;2.23;1.00;;;18.80;99.90;;;;;;5042647;28;20447;-64
2022/09/10 12:03:22;;;;;;;2.10;1.80;;;18.20;99.90;;;;;;5048299;28;20496;-63
2022/09/10 12:06:03;;;;;;;4.43;1.70;;;17.30;99.90;;;;;;5002534;28;20452;-63
2022/09/10 12:08:44;;;;;;;4.33;1.63;;;16.90;99.90;;;;;;5044672;28;20440;-64
2022/09/10 12:11:23;;;;;;;1.33;1.20;;;16.90;99.90;;;;;;5047758;28;20499;-65
2022/09/10 12:13:51;;;;;;;3.33;1.77;;;17.40;99.90;;;;;;5046788;28;20455;-65
2022/09/10 12:16:33;;;;;;;1.80;1.50;;;18.70;99.90;;;;;;5046548;28;20460;-65
2022/09/10 12:19:03;;;;;;;3.80;1.70;;;20.60;99.90;;;;;;5041704;28;20549;-65
2022/09/10 12:21:36;;;;;;;2.33;1.20;;;22.10;99.90;;;;;;5046406;28;21135;-65
2022/09/10 12:24:20;;;;;;;2.60;1.40;;;23.30;99.90;;;;;;5049587;28;20440;-65
2022/09/10 12:26:49;;;;;;;2.40;1.10;;;24.20;99.90;;;;;;5050178;28;20471;-64
2022/09/10 12:29:32;;;;;;;3.23;1.30;;;24.20;99.90;;;;;;5040666;28;20453;-65
2022/09/10 12:32:27;;;;;;;1.70;1.20;;;23.60;99.90;;;;;;5043893;28;21097;-65
2022/09/10 12:35:27;;;;;;;3.83;1.13;;;22.80;99.90;;;;;;5049156;28;20498;-65
2022/09/10 12:38:27;;;;;;;3.17;1.43;;;22.40;99.90;;;;;;5049868;28;20488;-65
2022/09/10 12:40:55;;;;;;;3.50;1.20;;;21.70;99.90;;;;;;5045867;28;20945;-70
2022/09/10 12:43:54;;;;;;;5.43;1.63;;;21.10;99.90;;;;;;5048570;28;20966;-65
2022/09/10 12:46:24;;;;;;;3.37;1.20;;;20.60;99.90;;;;;;5045767;28;20455;-65
2022/09/10 12:49:05;;;;;;;1.67;1.20;;;20.30;99.90;;;;;;5050097;28;20448;-65
2022/09/10 12:51:40;;;;;;;3.50;1.40;;;20.30;99.90;;;;;;5047942;28;20583;-65
2022/09/10 12:54:34;;;;;;;3.07;1.30;;;20.30;99.90;;;;;;5049476;28;20539;-65
2022/09/10 12:57:24;;;;;;;2.73;1.20;;;20.70;99.90;;;;;;5049599;28;20479;-64
2022/09/10 13:00:18;;;;;;;3.10;1.40;;;21.20;99.90;;;;;;5046989;28;20483;-64
2022/09/10 13:02:52;;;;;;;1.90;1.27;;;21.10;99.90;;;;;;5043569;28;20468;-66
2022/09/10 13:05:26;;;;;;;2.70;1.13;;;21.10;99.90;;;;;;5049505;28;20440;-66
2022/09/10 13:08:23;;;;;;;2.23;1.07;;;20.80;99.90;;;;;;5043066;28;20444;-66
2022/09/10 13:11:13;;;;;;;4.80;1.20;;;20.50;99.90;;;;;;4998333;28;21252;-65